createdAt,value
2022-08-19T00:02:22.386Z,25.46
2022-08-19T00:04:53.768Z,25.48
2022-08-19T00:07:23.429Z,25.39
2022-08-19T00:09:52.995Z,25.39
2022-08-19T00:12:28.839Z,25.41
2022-08-19T00:14:58.381Z,25.41
2022-08-19T00:17:27.927Z,25.45
2022-08-19T00:19:57.482Z,25.43
2022-08-19T00:22:28.107Z,25.46
2022-08-19T00:24:57.738Z,25.43
2022-08-19T00:27:34.428Z,25.41
2022-08-19T00:30:04.586Z,25.39
2022-08-19T00:32:35.378Z,25.36
2022-08-19T00:35:05.006Z,25.29
2022-08-19T00:37:36.030Z,25.31
2022-08-19T00:40:06.602Z,25.26
2022-08-19T00:42:39.636Z,25.25
2022-08-19T00:45:13.738Z,25.18
2022-08-19T00:47:43.299Z,25.19
2022-08-19T00:50:12.999Z,25.20
2022-08-19T00:52:46.570Z,25.23
2022-08-19T00:55:17.252Z,25.18
2022-08-19T00:57:51.857Z,25.13
2022-08-19T01:00:22.147Z,25.04
2022-08-19T01:02:51.945Z,24.99
2022-08-19T01:05:23.818Z,24.96
2022-08-19T01:07:54.041Z,24.92
2022-08-19T01:10:25.414Z,24.91
2022-08-19T01:12:58.107Z,24.97
2022-08-19T01:15:28.448Z,24.86
2022-08-19T01:17:57.968Z,24.86
2022-08-19T01:20:27.660Z,24.79
2022-08-19T01:23:00.842Z,24.84
2022-08-19T01:25:33.366Z,24.82
2022-08-19T01:28:10.815Z,24.85
2022-08-19T01:30:44.427Z,24.89
2022-08-19T01:33:14.136Z,24.90
2022-08-19T01:35:44.282Z,24.86
2022-08-19T01:38:23.601Z,24.85
2022-08-19T01:40:54.102Z,24.82
2022-08-19T01:43:23.807Z,24.71
2022-08-19T01:45:53.821Z,24.68
2022-08-19T01:48:24.715Z,24.62
2022-08-19T01:50:54.011Z,24.64
2022-08-19T01:53:26.706Z,24.68
2022-08-19T01:56:03.244Z,24.68
2022-08-19T01:58:34.133Z,24.65
2022-08-19T02:01:03.484Z,24.67
2022-08-19T02:03:33.155Z,24.66
2022-08-19T02:06:03.695Z,24.67
2022-08-19T02:08:36.959Z,24.70
2022-08-19T02:11:06.802Z,24.64
2022-08-19T02:13:36.447Z,24.51
2022-08-19T02:16:06.808Z,24.38
2022-08-19T02:18:36.593Z,24.31
2022-08-19T02:21:07.304Z,24.12
2022-08-19T02:23:39.773Z,24.01
2022-08-19T02:26:09.617Z,24.01
2022-08-19T02:28:39.184Z,23.97
2022-08-19T02:31:12.834Z,23.85
2022-08-19T02:33:42.739Z,23.84
2022-08-19T02:36:13.113Z,23.81
2022-08-19T02:38:54.825Z,23.81
2022-08-19T02:41:26.930Z,23.77
2022-08-19T02:44:20.417Z,23.82
2022-08-19T02:46:48.231Z,23.87
2022-08-19T02:49:18.242Z,23.80
2022-08-19T02:51:48.383Z,23.80
2022-08-19T02:54:20.592Z,23.71
2022-08-19T02:56:50.215Z,23.78
2022-08-19T02:59:20.145Z,23.71
2022-08-19T03:01:52.516Z,23.63
2022-08-19T03:04:24.233Z,23.58
2022-08-19T03:06:53.851Z,23.50
2022-08-19T03:09:26.031Z,23.52
2022-08-19T03:11:55.606Z,23.58
2022-08-19T03:14:25.189Z,23.59
2022-08-19T03:16:55.399Z,23.58
2022-08-19T03:19:25.046Z,23.60
2022-08-19T03:21:54.717Z,23.59
2022-08-19T03:24:27.044Z,23.63
2022-08-19T03:26:59.588Z,23.66
2022-08-19T03:29:31.175Z,23.62
2022-08-19T03:32:01.880Z,23.64
2022-08-19T03:34:32.447Z,23.58
2022-08-19T03:37:02.678Z,23.57
2022-08-19T03:39:34.939Z,23.51
2022-08-19T03:42:29.307Z,23.58
2022-08-19T03:44:54.410Z,23.48
2022-08-19T03:47:24.000Z,23.57
2022-08-19T03:49:53.581Z,23.54
2022-08-19T03:52:23.234Z,23.53
2022-08-19T03:54:55.433Z,23.47
2022-08-19T03:57:32.020Z,23.41
2022-08-19T04:00:13.179Z,23.50
2022-08-19T04:02:56.470Z,23.41
2022-08-19T04:05:31.254Z,23.29
2022-08-19T04:08:01.648Z,23.23
2022-08-19T04:10:34.018Z,23.26
2022-08-19T04:13:03.596Z,23.28
2022-08-19T04:15:36.817Z,23.36
2022-08-19T04:18:08.774Z,23.29
2022-08-19T04:20:43.047Z,23.35
2022-08-19T04:23:12.568Z,23.38
2022-08-19T04:25:46.738Z,23.36
2022-08-19T04:28:16.399Z,23.34
2022-08-19T04:30:47.241Z,23.30
2022-08-19T04:33:17.461Z,23.29
2022-08-19T04:35:55.667Z,23.34
2022-08-19T04:38:25.681Z,23.36
2022-08-19T04:41:10.358Z,23.33
2022-08-19T04:43:41.227Z,23.26
2022-08-19T04:46:11.712Z,23.30
2022-08-19T04:48:58.222Z,23.29
2022-08-19T04:51:27.855Z,23.25
2022-08-19T04:53:57.843Z,23.32
2022-08-19T04:56:30.104Z,23.26
2022-08-19T04:59:04.017Z,23.31
2022-08-19T05:01:34.073Z,23.31
2022-08-19T05:04:05.685Z,23.36
2022-08-19T05:06:36.049Z,23.29
2022-08-19T05:09:06.077Z,23.32
2022-08-19T05:11:40.187Z,23.37
2022-08-19T05:14:09.978Z,23.35
2022-08-19T05:16:39.597Z,23.41
2022-08-19T05:19:21.660Z,23.46
2022-08-19T05:22:03.711Z,23.55
2022-08-19T05:24:35.276Z,23.53
2022-08-19T05:27:08.717Z,23.45
2022-08-19T05:29:38.438Z,23.59
2022-08-19T05:32:09.367Z,23.58
2022-08-19T05:34:39.208Z,23.70
2022-08-19T05:37:09.452Z,23.60
2022-08-19T05:39:41.559Z,23.50
2022-08-19T05:42:15.377Z,23.53
2022-08-19T05:44:46.705Z,23.55
2022-08-19T05:47:16.854Z,23.65
2022-08-19T05:49:46.718Z,23.70
2022-08-19T05:52:18.810Z,23.69
2022-08-19T05:54:51.083Z,23.69
2022-08-19T05:57:23.831Z,23.69
2022-08-19T05:59:58.278Z,23.74
2022-08-19T06:02:28.503Z,23.70
2022-08-19T06:04:58.300Z,23.82
2022-08-19T06:07:28.516Z,23.91
2022-08-19T06:09:59.951Z,24.05
2022-08-19T06:12:35.386Z,24.25
2022-08-19T06:15:06.214Z,24.45
2022-08-19T06:17:36.263Z,24.57
2022-08-19T06:20:07.204Z,24.70
2022-08-19T06:22:40.436Z,25.03
2022-08-19T06:25:11.171Z,25.29
2022-08-19T06:28:14.610Z,25.56
2022-08-19T06:30:33.538Z,25.57
2022-08-19T06:33:03.698Z,25.90
2022-08-19T06:35:33.553Z,26.12
2022-08-19T06:38:04.397Z,26.39
2022-08-19T06:40:34.180Z,26.62
2022-08-19T06:43:08.606Z,26.66
2022-08-19T06:45:40.652Z,26.85
2022-08-19T06:48:10.578Z,27.08
2022-08-19T06:50:41.388Z,27.20
2022-08-19T06:53:10.981Z,27.23
2022-08-19T06:55:42.188Z,26.88
2022-08-19T06:58:15.234Z,27.01
2022-08-19T07:00:44.845Z,27.43
2022-08-19T07:03:14.678Z,27.83
2022-08-19T07:05:45.600Z,28.15
2022-08-19T07:08:16.044Z,28.15
2022-08-19T07:10:47.647Z,28.25
2022-08-19T07:13:20.382Z,28.32
2022-08-19T07:15:50.536Z,28.58
2022-08-19T07:18:22.601Z,28.61
2022-08-19T07:20:52.230Z,28.61
2022-08-19T07:23:22.528Z,28.76
2022-08-19T07:25:53.468Z,28.83
2022-08-19T07:28:25.706Z,28.83
2022-08-19T07:30:57.440Z,28.78
2022-08-19T07:33:28.055Z,28.54
2022-08-19T07:35:57.697Z,28.33
2022-08-19T07:38:27.269Z,28.36
2022-08-19T07:40:57.225Z,28.36
2022-08-19T07:43:34.948Z,28.32
2022-08-19T07:46:04.962Z,28.38
2022-08-19T07:48:34.886Z,28.38
2022-08-19T07:51:05.696Z,28.36
2022-08-19T07:53:39.566Z,28.26
2022-08-19T07:56:10.253Z,28.37
2022-08-19T07:58:45.375Z,28.40
2022-08-19T08:01:16.541Z,28.42
2022-08-19T08:03:58.656Z,28.37
2022-08-19T08:06:40.676Z,28.24
2022-08-19T08:11:54.407Z,28.50
2022-08-19T08:14:35.065Z,28.71
2022-08-19T08:17:04.786Z,28.78
2022-08-19T08:19:42.112Z,28.75
2022-08-19T08:22:32.147Z,28.98
2022-08-19T08:25:05.248Z,29.16
2022-08-19T08:27:40.618Z,29.53
2022-08-19T08:30:13.786Z,29.79
2022-08-19T08:32:44.044Z,29.97
2022-08-19T08:35:17.620Z,30.16
2022-08-19T08:37:49.183Z,30.38
2022-08-19T08:40:22.748Z,30.62
2022-08-19T08:42:55.009Z,30.66
2022-08-19T08:45:27.706Z,30.65
2022-08-19T08:48:04.352Z,30.79
2022-08-19T08:50:53.421Z,31.07
2022-08-19T08:53:26.407Z,31.27
2022-08-19T08:55:59.598Z,31.47
2022-08-19T08:58:31.772Z,31.55
2022-08-19T09:01:04.017Z,31.61
2022-08-19T09:03:33.652Z,31.66
2022-08-19T09:06:12.037Z,31.78
2022-08-19T09:08:44.617Z,31.68
2022-08-19T09:11:16.293Z,31.86
2022-08-19T09:14:29.228Z,31.97
2022-08-19T09:17:04.486Z,31.90
2022-08-19T09:19:34.216Z,31.82
2022-08-19T09:22:03.803Z,31.73
2022-08-19T09:24:33.419Z,31.66
2022-08-19T09:27:15.998Z,31.45
2022-08-19T09:29:49.567Z,31.56
2022-08-19T09:32:26.148Z,31.67
2022-08-19T09:34:59.070Z,32.00
2022-08-19T09:37:28.800Z,31.96
2022-08-19T09:39:59.380Z,32.06
2022-08-19T09:42:30.549Z,32.23
2022-08-19T09:45:05.364Z,32.41
2022-08-19T09:47:42.676Z,32.68
2022-08-19T09:50:16.612Z,32.98
2022-08-19T09:52:55.068Z,33.12
2022-08-19T09:55:32.070Z,33.20
2022-08-19T09:58:04.093Z,33.34
2022-08-19T10:00:34.561Z,33.55
2022-08-19T10:03:07.115Z,33.82
2022-08-19T10:05:55.240Z,34.07
2022-08-19T10:08:26.755Z,34.37
2022-08-19T10:10:56.822Z,34.60
2022-08-19T10:13:32.993Z,35.11
2022-08-19T10:16:07.513Z,35.45
2022-08-19T10:18:40.851Z,36.11
2022-08-19T10:21:15.492Z,37.20
2022-08-19T10:23:47.343Z,36.40
2022-08-19T10:26:18.043Z,35.13
2022-08-19T10:28:48.724Z,35.13
2022-08-19T10:31:21.349Z,36.32
2022-08-19T10:34:26.789Z,35.37
2022-08-19T10:37:00.924Z,34.92
2022-08-19T10:39:41.175Z,34.88
2022-08-19T10:42:14.769Z,34.66
2022-08-19T10:44:44.738Z,34.42
2022-08-19T10:47:17.209Z,34.36
2022-08-19T10:50:07.598Z,34.29
2022-08-19T10:52:49.689Z,34.11
2022-08-19T10:55:32.774Z,33.60
2022-08-19T10:58:03.123Z,33.27
2022-08-19T11:00:32.907Z,33.54
2022-08-19T11:03:02.612Z,33.80
2022-08-19T11:05:39.701Z,34.09
2022-08-19T11:08:22.137Z,34.11
2022-08-19T11:10:52.283Z,33.72
2022-08-19T11:13:21.949Z,33.82
2022-08-19T11:15:51.594Z,34.09
2022-08-19T11:18:21.195Z,34.33
2022-08-19T11:20:53.752Z,34.13
2022-08-19T11:23:23.325Z,33.73
2022-08-19T11:25:54.201Z,33.71
2022-08-19T11:28:23.848Z,33.57
2022-08-19T11:30:53.348Z,33.40
2022-08-19T11:33:22.927Z,33.14
2022-08-19T11:35:55.089Z,33.32
2022-08-19T11:38:24.712Z,33.64
2022-08-19T11:41:01.240Z,33.72
2022-08-19T11:43:36.801Z,33.51
2022-08-19T11:46:08.473Z,33.45
2022-08-19T11:48:38.126Z,33.67
2022-08-19T11:51:14.262Z,33.88
2022-08-19T11:53:43.894Z,33.69
2022-08-19T11:56:13.648Z,33.52
2022-08-19T11:58:43.397Z,33.27
2022-08-19T12:01:13.328Z,33.01
2022-08-19T12:03:43.102Z,33.10
2022-08-19T12:06:17.755Z,33.35
2022-08-19T12:08:48.523Z,33.44
2022-08-19T12:11:18.090Z,33.61
2022-08-19T12:13:48.843Z,33.66
2022-08-19T12:16:20.246Z,33.92
2022-08-19T12:18:55.036Z,34.10
2022-08-19T12:21:29.580Z,34.08
2022-08-19T12:23:59.627Z,33.79
2022-08-19T12:26:29.730Z,33.98
2022-08-19T12:29:00.519Z,34.16
2022-08-19T12:31:30.249Z,34.41
2022-08-19T12:33:59.828Z,34.63
2022-08-19T12:36:31.995Z,34.68
2022-08-19T12:39:02.517Z,34.58
2022-08-19T12:41:32.093Z,34.80
2022-08-19T12:44:01.902Z,34.93
2022-08-19T12:46:32.532Z,34.92
2022-08-19T12:49:05.152Z,34.78
2022-08-19T12:51:56.703Z,34.91
2022-08-19T12:54:26.248Z,35.16
2022-08-19T12:56:55.826Z,35.32
2022-08-19T12:59:25.427Z,35.50
2022-08-19T13:01:55.063Z,35.57
2022-08-19T13:04:24.674Z,35.50
2022-08-19T13:06:56.879Z,35.53
2022-08-19T13:09:26.499Z,35.68
2022-08-19T13:11:57.869Z,35.65
2022-08-19T13:14:27.435Z,35.66
2022-08-19T13:16:57.003Z,35.76
2022-08-19T13:19:28.946Z,35.39
2022-08-19T13:22:02.433Z,35.33
2022-08-19T13:24:33.920Z,35.32
2022-08-19T13:27:06.769Z,35.38
2022-08-19T13:29:48.965Z,35.47
2022-08-19T13:32:31.152Z,35.57
2022-08-19T13:35:02.675Z,35.29
2022-08-19T13:37:47.112Z,35.34
2022-08-19T13:40:19.596Z,35.54
2022-08-19T13:42:50.275Z,35.52
2022-08-19T13:45:20.624Z,35.49
2022-08-19T13:47:52.043Z,35.57
2022-08-19T13:50:24.087Z,35.60
2022-08-19T13:52:56.190Z,35.68
2022-08-19T13:55:25.980Z,35.59
2022-08-19T13:57:55.820Z,35.71
2022-08-19T14:00:27.544Z,35.73
2022-08-19T14:02:58.600Z,35.77
2022-08-19T14:05:29.307Z,35.70
2022-08-19T14:08:01.692Z,35.63
2022-08-19T14:10:32.684Z,35.53
2022-08-19T14:13:03.214Z,35.62
2022-08-19T14:15:32.858Z,35.70
2022-08-19T14:18:03.665Z,35.57
2022-08-19T14:20:33.292Z,35.51
2022-08-19T14:23:06.224Z,35.54
2022-08-19T14:25:36.112Z,35.54
2022-08-19T14:28:06.064Z,35.75
2022-08-19T14:30:38.729Z,35.92
2022-08-19T14:33:09.560Z,35.96
2022-08-19T14:35:39.534Z,36.01
2022-08-19T14:38:18.714Z,36.02
2022-08-19T14:40:58.759Z,35.95
2022-08-19T14:43:28.421Z,35.98
2022-08-19T14:45:58.116Z,35.86
2022-08-19T14:48:29.136Z,35.66
2022-08-19T14:50:58.844Z,35.46
2022-08-19T14:53:31.055Z,35.20
2022-08-19T14:56:00.614Z,35.06
2022-08-19T14:58:30.567Z,34.81
2022-08-19T15:01:01.716Z,34.76
2022-08-19T15:03:32.649Z,34.77
2022-08-19T15:06:03.340Z,34.81
2022-08-19T15:08:36.254Z,34.57
2022-08-19T15:11:05.930Z,34.43
2022-08-19T15:13:35.555Z,34.60
2022-08-19T15:16:05.598Z,34.58
2022-08-19T15:18:36.036Z,34.72
2022-08-19T15:21:05.484Z,34.75
2022-08-19T15:23:37.697Z,34.50
2022-08-19T15:26:11.573Z,34.63
2022-08-19T15:28:45.772Z,34.45
2022-08-19T15:31:17.089Z,34.37
2022-08-19T15:33:57.146Z,34.26
2022-08-19T15:36:27.149Z,34.31
2022-08-19T15:39:00.171Z,34.40
2022-08-19T15:41:30.968Z,34.32
2022-08-19T15:44:03.258Z,34.41
2022-08-19T15:46:34.499Z,34.34
2022-08-19T15:49:04.107Z,34.45
2022-08-19T15:51:35.542Z,34.53
2022-08-19T15:54:08.584Z,34.55
2022-08-19T15:56:57.988Z,34.44
2022-08-19T15:59:46.939Z,34.28
2022-08-19T16:02:32.094Z,34.00
2022-08-19T16:05:14.315Z,33.77
2022-08-19T16:07:43.876Z,33.65
2022-08-19T16:10:26.204Z,33.52
2022-08-19T16:12:57.398Z,33.71
2022-08-19T16:15:27.946Z,33.81
2022-08-19T16:17:57.947Z,33.55
2022-08-19T16:20:28.051Z,33.54
2022-08-19T16:22:58.640Z,33.38
2022-08-19T16:25:30.882Z,33.21
2022-08-19T16:28:06.561Z,33.17
2022-08-19T16:30:37.712Z,32.98
2022-08-19T16:33:13.973Z,32.91
2022-08-19T16:36:08.768Z,32.92
2022-08-19T16:38:44.015Z,32.80
2022-08-19T16:41:18.669Z,32.85
2022-08-19T16:43:58.010Z,32.75
2022-08-19T16:50:59.637Z,32.66
2022-08-19T16:53:47.158Z,32.72
2022-08-19T16:56:29.363Z,32.65
2022-08-19T16:59:55.735Z,32.58
2022-08-19T17:02:29.632Z,32.64
2022-08-19T17:05:00.789Z,32.66
2022-08-19T17:07:33.698Z,32.64
2022-08-19T17:10:03.472Z,32.69
2022-08-19T17:12:37.825Z,32.60
2022-08-19T17:15:11.577Z,32.63
2022-08-19T17:17:42.047Z,32.52
2022-08-19T17:20:15.628Z,32.35
2022-08-19T17:22:45.238Z,32.13
2022-08-19T17:25:18.512Z,32.04
2022-08-19T17:27:51.653Z,32.01
2022-08-19T17:30:22.356Z,31.95
2022-08-19T17:32:52.024Z,31.84
2022-08-19T17:35:30.072Z,31.80
2022-08-19T17:38:02.873Z,31.89
2022-08-19T17:40:42.335Z,31.82
2022-08-19T17:43:15.812Z,31.79
2022-08-19T17:45:48.246Z,31.51
2022-08-19T17:48:18.137Z,31.39
2022-08-19T17:50:52.488Z,31.20
2022-08-19T17:53:24.758Z,31.28
2022-08-19T17:56:13.422Z,31.28
2022-08-19T17:59:00.049Z,31.20
2022-08-19T18:01:51.922Z,31.10
2022-08-19T18:04:20.476Z,31.12
2022-08-19T18:06:53.656Z,31.05
2022-08-19T18:09:25.958Z,30.90
2022-08-19T18:11:57.114Z,30.88
2022-08-19T18:14:33.736Z,30.85
2022-08-19T18:17:06.184Z,30.80
2022-08-19T18:19:41.223Z,30.71
2022-08-19T18:22:13.321Z,30.67
2022-08-19T18:24:45.866Z,30.63
2022-08-19T18:27:18.787Z,30.62
2022-08-19T18:29:54.157Z,30.61
2022-08-19T18:32:25.531Z,30.42
2022-08-19T18:34:56.287Z,30.40
2022-08-19T18:37:29.193Z,30.34
2022-08-19T18:40:11.280Z,30.32
2022-08-19T18:42:57.570Z,30.25
2022-08-19T18:45:43.671Z,30.19
2022-08-19T18:48:27.418Z,30.14
2022-08-19T18:50:58.750Z,29.99
2022-08-19T18:53:28.488Z,29.90
2022-08-19T18:55:58.127Z,29.85
2022-08-19T18:58:33.890Z,29.85
2022-08-19T19:01:11.645Z,29.83
2022-08-19T19:03:42.917Z,29.78
2022-08-19T19:06:12.509Z,29.77
2022-08-19T19:08:42.121Z,29.75
2022-08-19T19:11:11.709Z,29.77
2022-08-19T19:13:41.922Z,29.69
2022-08-19T19:16:14.224Z,29.72
2022-08-19T19:18:44.694Z,29.71
2022-08-19T19:21:42.046Z,29.59
2022-08-19T19:24:14.416Z,29.59
2022-08-19T19:26:51.517Z,29.51
2022-08-19T19:29:24.214Z,29.49
2022-08-19T19:31:56.569Z,29.53
2022-08-19T19:34:29.573Z,29.59
2022-08-19T19:36:59.822Z,29.54
2022-08-19T19:39:45.109Z,29.45
2022-08-19T19:42:21.007Z,29.39
2022-08-19T19:44:51.597Z,29.42
2022-08-19T19:47:28.196Z,29.47
2022-08-19T19:50:15.299Z,29.36
2022-08-19T19:52:45.750Z,29.35
2022-08-19T19:55:18.415Z,29.26
2022-08-19T19:58:08.051Z,29.16
2022-08-19T20:00:40.212Z,29.12
2022-08-19T20:03:12.570Z,29.17
2022-08-19T20:05:42.248Z,29.01
2022-08-19T20:08:24.281Z,29.04
2022-08-19T20:10:53.939Z,29.03
2022-08-19T20:13:23.553Z,28.91
2022-08-19T20:15:55.119Z,28.88
2022-08-19T20:18:29.217Z,28.80
2022-08-19T20:21:00.254Z,28.93
2022-08-19T20:23:31.224Z,28.86
2022-08-19T20:26:01.786Z,28.85
2022-08-19T20:28:33.467Z,28.89
2022-08-19T20:31:03.520Z,28.93
2022-08-19T20:33:40.329Z,28.84
2022-08-19T20:36:10.595Z,28.87
2022-08-19T20:38:40.823Z,28.91
2022-08-19T20:41:21.955Z,28.87
2022-08-19T20:43:51.840Z,28.83
2022-08-19T20:46:21.631Z,28.87
2022-08-19T20:48:53.821Z,28.80
2022-08-19T20:51:24.096Z,28.76
2022-08-19T20:53:53.698Z,28.71
2022-08-19T20:56:23.395Z,28.78
2022-08-19T20:58:57.967Z,28.74
2022-08-19T21:01:29.516Z,28.52
2022-08-19T21:04:04.821Z,28.53
2022-08-19T21:06:34.440Z,28.53
2022-08-19T21:09:04.046Z,28.65
2022-08-19T21:11:34.406Z,28.60
2022-08-19T21:14:03.991Z,28.58
2022-08-19T21:16:34.088Z,28.62
2022-08-19T21:19:08.559Z,28.64
2022-08-19T21:21:51.554Z,28.64
2022-08-19T21:24:31.424Z,28.62
2022-08-19T21:27:05.783Z,28.51
2022-08-19T21:29:37.470Z,28.53
2022-08-19T21:32:07.703Z,28.58
2022-08-19T21:34:41.389Z,28.54
2022-08-19T21:37:18.995Z,28.52
2022-08-19T21:39:58.356Z,28.56
2022-08-19T21:42:27.966Z,28.50
2022-08-19T21:45:01.068Z,28.45
2022-08-19T21:47:30.699Z,28.43
2022-08-19T21:50:07.477Z,28.42
2022-08-19T21:52:37.175Z,28.43
2022-08-19T21:55:07.962Z,28.42
2022-08-19T21:57:41.481Z,28.28
2022-08-19T22:00:15.637Z,28.27
2022-08-19T22:02:45.718Z,28.30
2022-08-19T22:05:20.547Z,28.28
2022-08-19T22:07:50.203Z,28.21
2022-08-19T22:10:22.313Z,28.18
2022-08-19T22:12:51.879Z,28.16
2022-08-19T22:15:26.228Z,28.18
2022-08-19T22:17:57.140Z,28.14
2022-08-19T22:20:36.238Z,28.10
2022-08-19T22:23:09.628Z,28.11
2022-08-19T22:25:40.580Z,28.10
2022-08-19T22:28:13.984Z,28.06
2022-08-19T22:30:44.290Z,28.04
2022-08-19T22:33:16.597Z,27.95
2022-08-19T22:35:49.284Z,27.89
2022-08-19T22:38:19.439Z,27.86
2022-08-19T22:40:50.131Z,27.80
2022-08-19T22:43:20.982Z,27.80
2022-08-19T22:45:51.742Z,27.84
2022-08-19T22:48:22.325Z,27.81
2022-08-19T22:51:06.887Z,27.85
2022-08-19T22:53:36.767Z,27.88
2022-08-19T22:56:06.800Z,27.90
2022-08-19T22:58:37.532Z,27.84
2022-08-19T23:01:10.923Z,27.80
2022-08-19T23:03:42.613Z,27.81
2022-08-19T23:06:15.183Z,27.78
2022-08-19T23:08:44.959Z,27.62
2022-08-19T23:11:14.553Z,27.66
2022-08-19T23:13:44.235Z,27.65
2022-08-19T23:16:13.811Z,27.58
2022-08-19T23:18:45.466Z,27.58
2022-08-19T23:21:17.664Z,27.58
2022-08-19T23:23:49.693Z,27.57
2022-08-19T23:26:19.261Z,27.53
2022-08-19T23:29:01.346Z,27.43
2022-08-19T23:31:30.980Z,27.44
2022-08-19T23:34:00.574Z,27.43
2022-08-19T23:36:32.794Z,27.37
2022-08-19T23:39:02.484Z,27.30
2022-08-19T23:41:32.147Z,27.29
2022-08-19T23:44:02.340Z,27.24
2022-08-19T23:46:34.450Z,27.24
2022-08-19T23:49:10.623Z,27.22
2022-08-19T23:51:42.843Z,27.19
2022-08-19T23:54:12.409Z,27.16
2022-08-19T23:56:41.992Z,27.11
2022-08-19T23:59:15.542Z,27.08
